Time;durP1;ratioP1;P1;durP2;ratioP2;P2;SDS_P1;SDS_P2;PMS_P1;PMS_P2;Temp;Humidity;BMP_temperature;BMP_pressure;BME280_temperature;BME280_humidity;BME280_pressure;Samples;Min_cycle;Max_cycle;Signal;HPM_P1;HPM_P2
2022/06/15 00:02:09;;;;;;;;;;;;;;;10.05;94.05;98606.31;1763427;80;20219;-83
2022/06/15 00:04:35;;;;;;;;;;;;;;;10.08;91.41;98606.32;1781048;80;20167;-83
2022/06/15 00:07:01;;;;;;;;;;;;;;;10.02;89.85;98608.74;1781727;80;21852;-86
2022/06/15 00:09:27;;;;;;;;;;;;;;;9.94;92.03;98605.98;1781224;80;20183;-82
2022/06/15 00:11:53;;;;;;;;;;;;;;;9.94;92.98;98607.88;1778357;79;20160;-85
2022/06/15 00:14:21;;;;;;;;;;;;;;;9.90;93.30;98604.31;1780980;80;20635;-82
2022/06/15 00:16:47;;;;;;;;;;;;;;;9.87;94.27;98604.04;1763705;80;20273;-82
2022/06/15 00:19:13;;;;;;;;;;;;;;;9.86;94.63;98606.47;1751368;80;21133;-85
2022/06/15 00:21:39;;;;;;;;;;;;;;;9.84;95.18;98610.80;1780652;79;20735;-85
2022/06/15 00:24:05;;;;;;;;;;;;;;;9.83;92.44;98615.94;1773680;80;20296;-83
2022/06/15 00:26:30;;;;;;;;;;;;;;;9.79;90.44;98616.16;1781485;79;20508;-82
2022/06/15 00:28:56;;;;;;;;;;;;;;;9.73;90.62;98615.02;1781783;80;20183;-82
2022/06/15 00:31:22;;;;;;;;;;;;;;;9.70;92.43;98616.91;1782059;80;21531;-85
2022/06/15 00:33:48;;;;;;;;;;;;;;;9.65;93.67;98613.61;1775834;80;20746;-82
2022/06/15 00:36:15;;;;;;;;;;;;;;;9.63;91.58;98606.30;1725380;80;20211;-82
2022/06/15 00:38:43;;;;;;;;;;;;;;;9.58;92.62;98612.50;1779125;80;20483;-83
2022/06/15 00:41:11;;;;;;;;;;;;;;;9.59;93.50;98609.25;1781840;80;20219;-82
2022/06/15 00:43:39;;;;;;;;;;;;;;;9.63;91.74;98612.25;1780454;80;21054;-82
2022/06/15 00:46:21;;;;;;;;;;;;;;;9.64;94.30;98614.69;1778377;80;20235;-85
2022/06/15 00:48:54;;;;;;;;;;;;;;;9.67;93.76;98612.84;1781020;80;20474;-82
2022/06/15 00:51:20;;;;;;;;;;;;;;;9.70;96.17;98606.89;1780428;80;20195;-82
2022/06/15 00:53:46;;;;;;;;;;;;;;;9.76;94.50;98608.58;1780352;80;20238;-82
2022/06/15 00:56:12;;;;;;;;;;;;;;;9.75;96.00;98606.13;1782043;80;21040;-83
2022/06/15 00:58:38;;;;;;;;;;;;;;;9.78;94.08;98608.31;1780715;80;20188;-83
2022/06/15 01:01:05;;;;;;;;;;;;;;;9.76;92.43;98606.41;1781883;80;20168;-85
2022/06/15 01:03:31;;;;;;;;;;;;;;;9.68;92.56;98602.83;1781571;79;20155;-82
2022/06/15 01:06:22;;;;;;;;;;;;;;;9.68;93.68;98602.83;1749836;80;20221;-83
2022/06/15 01:08:58;;;;;;;;;;;;;;;9.69;91.60;98610.69;1775638;80;21069;-83
2022/06/15 01:11:30;;;;;;;;;;;;;;;9.65;91.50;98609.55;1764702;80;20480;-83
2022/06/15 01:14:09;;;;;;;;;;;;;;;9.64;91.19;98605.76;1752097;80;20436;-85
2022/06/15 01:16:59;;;;;;;;;;;;;;;9.60;91.16;98606.83;1781156;80;20219;-82
2022/06/15 01:19:31;;;;;;;;;;;;;;;9.58;93.31;98605.73;1781113;80;20190;-85
2022/06/15 01:22:16;;;;;;;;;;;;;;;9.63;94.59;98608.19;1780955;79;21063;-83
2022/06/15 01:24:51;;;;;;;;;;;;;;;9.66;93.24;98607.15;1781521;80;20219;-85
2022/06/15 01:27:44;;;;;;;;;;;;;;;9.71;94.46;98613.13;1781310;79;20129;-83
2022/06/15 01:30:13;;;;;;;;;;;;;;;9.70;92.59;98609.60;1781142;80;20184;-82
2022/06/15 01:32:46;;;;;;;;;;;;;;;9.67;93.35;98603.37;1779971;80;20199;-83
2022/06/15 01:35:15;;;;;;;;;;;;;;;9.69;93.18;98607.97;1758521;80;21322;-82
2022/06/15 01:38:20;;;;;;;;;;;;;;;9.68;95.87;98602.83;1773817;80;20518;-82
2022/06/15 01:40:37;;;;;;;;;;;;;;;9.71;94.18;98603.11;1777489;80;20191;-83
2022/06/15 01:43:07;;;;;;;;;;;;;;;9.71;93.68;98600.41;1781236;80;20613;-86
2022/06/15 01:45:34;;;;;;;;;;;;;;;9.66;91.49;98594.98;1780546;80;20459;-82
2022/06/15 01:48:00;;;;;;;;;;;;;;;9.61;93.26;98590.33;1781566;79;21116;-82
2022/06/15 01:50:29;;;;;;;;;;;;;;;9.59;93.89;98591.13;1779160;80;20232;-82
2022/06/15 01:53:08;;;;;;;;;;;;;;;9.61;93.30;98590.33;1743003;80;20175;-86
2022/06/15 01:55:42;;;;;;;;;;;;;;;9.64;94.55;98592.23;1776010;80;20204;-82
2022/06/15 01:58:09;;;;;;;;;;;;;;;9.67;93.14;98589.84;1776312;80;20609;-82
2022/06/15 02:00:35;;;;;;;;;;;;;;;9.63;93.02;98592.77;1778264;80;21846;-85
2022/06/15 02:03:05;;;;;;;;;;;;;;;9.59;95.05;98593.02;1740896;80;20662;-82
2022/06/15 02:05:51;;;;;;;;;;;;;;;9.60;95.82;98596.00;1774866;80;20207;-83
2022/06/15 02:08:22;;;;;;;;;;;;;;;9.60;93.95;98595.46;1781599;80;20852;-82
2022/06/15 02:11:00;;;;;;;;;;;;;;;9.58;93.20;98596.80;1781061;80;20223;-82
2022/06/15 02:13:30;;;;;;;;;;;;;;;9.53;95.18;98594.05;1781149;79;21125;-83
2022/06/15 02:16:03;;;;;;;;;;;;;;;9.53;92.95;98593.52;1730929;82;20202;-86
2022/06/15 02:18:28;;;;;;;;;;;;;;;9.50;92.27;98595.39;1781132;79;20494;-83
2022/06/15 02:21:00;;;;;;;;;;;;;;;9.46;92.23;98590.20;1749768;80;20194;-83
2022/06/15 02:23:26;;;;;;;;;;;;;;;9.41;94.21;98590.18;1780707;79;20223;-85
2022/06/15 02:25:52;;;;;;;;;;;;;;;9.39;94.08;98594.19;1774499;80;21077;-83
2022/06/15 02:28:18;;;;;;;;;;;;;;;9.36;95.29;98596.89;1781455;79;20198;-83
2022/06/15 02:30:44;;;;;;;;;;;;;;;9.36;96.27;98594.18;1749700;80;20209;-83
2022/06/15 02:33:15;;;;;;;;;;;;;;;9.36;95.06;98592.02;1773980;81;20184;-83
2022/06/15 02:35:41;;;;;;;;;;;;;;;9.33;94.37;98594.70;1780131;80;20160;-83
2022/06/15 02:38:07;;;;;;;;;;;;;;;9.30;94.55;98596.02;1740279;80;21142;-83
2022/06/15 02:40:33;;;;;;;;;;;;;;;9.27;92.18;98596.55;1777229;80;20195;-83
2022/06/15 02:42:59;;;;;;;;;;;;;;;9.21;92.31;98594.86;1781586;79;20206;-83
2022/06/15 02:45:28;;;;;;;;;;;;;;;9.13;93.42;98591.80;1781384;80;20235;-83
2022/06/15 02:47:54;;;;;;;;;;;;;;;9.12;95.49;98600.45;1781165;79;20188;-82
2022/06/15 02:50:20;;;;;;;;;;;;;;;9.08;97.38;98599.34;1754981;80;21137;-86
2022/06/15 02:53:10;;;;;;;;;;;;;;;9.08;97.48;98602.59;1774408;79;20191;-85
2022/06/15 02:55:36;;;;;;;;;;;;;;;9.09;95.70;98600.16;1780289;80;20195;-85
2022/06/15 02:58:05;;;;;;;;;;;;;;;9.08;94.43;98599.88;1752573;80;20273;-86
2022/06/15 03:00:31;;;;;;;;;;;;;;;9.06;95.51;98602.84;1746238;80;20179;-85
2022/06/15 03:02:57;;;;;;;;;;;;;;;9.03;96.90;98605.50;1777945;79;21393;-86
2022/06/15 03:05:22;;;;;;;;;;;;;;;8.98;98.83;98604.12;1781325;80;20217;-83
2022/06/15 03:07:48;;;;;;;;;;;;;;;9.01;98.00;98604.13;1781700;79;20198;-84
2022/06/15 03:10:14;;;;;;;;;;;;;;;9.01;96.55;98601.44;1759688;80;20156;-82
2022/06/15 03:12:40;;;;;;;;;;;;;;;8.98;96.81;98603.30;1764930;79;20199;-83
2022/06/15 03:15:06;;;;;;;;;;;;;;;8.96;98.61;98602.72;1769933;80;21013;-83
2022/06/15 03:17:32;;;;;;;;;;;;;;;8.99;97.51;98608.45;1757283;79;20268;-86
2022/06/15 03:19:57;;;;;;;;;;;;;;;9.00;96.94;98606.03;1761508;79;20279;-85
2022/06/15 03:22:23;;;;;;;;;;;;;;;9.04;98.32;98612.54;1775443;78;20178;-86
2022/06/15 03:24:49;;;;;;;;;;;;;;;9.10;98.10;98615.30;1779898;80;20190;-85
2022/06/15 03:27:17;;;;;;;;;;;;;;;9.12;98.08;98617.21;1780296;80;21030;-83
2022/06/15 03:29:42;;;;;;;;;;;;;;;9.07;97.05;98611.23;1772067;80;20213;-82
2022/06/15 03:32:12;;;;;;;;;;;;;;;9.15;96.03;98621.59;1769940;79;20213;-82
2022/06/15 03:34:36;;;;;;;;;;;;;;;9.11;96.79;98620.98;1768704;79;20184;-82
2022/06/15 03:37:02;;;;;;;;;;;;;;;9.11;97.40;98622.34;1770918;80;20201;-82
2022/06/15 03:39:28;;;;;;;;;;;;;;;9.08;96.79;98626.92;1768158;80;21714;-82
2022/06/15 03:41:53;;;;;;;;;;;;;;;9.05;98.07;98629.58;1770242;79;20253;-85
2022/06/15 03:44:19;;;;;;;;;;;;;;;9.08;97.15;98627.73;1766282;80;20237;-85
2022/06/15 03:46:45;;;;;;;;;;;;;;;9.04;98.23;98627.95;1763532;79;20266;-85
2022/06/15 03:49:11;;;;;;;;;;;;;;;9.04;97.75;98626.05;1779659;79;20179;-84
2022/06/15 03:51:36;;;;;;;;;;;;;;;9.05;96.78;98626.87;1779357;79;21801;-86
2022/06/15 03:54:02;;;;;;;;;;;;;;;9.01;97.27;98623.06;1755466;80;20269;-85
2022/06/15 03:56:45;;;;;;;;;;;;;;;9.00;95.85;98621.43;1780046;79;20237;-85
2022/06/15 03:59:12;;;;;;;;;;;;;;;9.01;97.48;98620.36;1772693;80;20959;-85
2022/06/15 04:01:38;;;;;;;;;;;;;;;9.09;97.73;98616.38;1780067;80;20263;-85
2022/06/15 04:04:03;;;;;;;;;;;;;;;9.17;98.06;98615.92;1779295;80;21828;-86
2022/06/15 04:06:29;;;;;;;;;;;;;;;9.37;95.75;98617.98;1780027;79;20171;-85
2022/06/15 04:08:55;;;;;;;;;;;;;;;9.48;96.58;98619.70;1779699;79;20358;-86
2022/06/15 04:14:05;;;;;;;;;;;;;;;9.66;97.16;98619.87;1776382;80;20231;-86
2022/06/15 04:16:31;;;;;;;;;;;;;;;9.79;95.73;98628.34;1780331;79;21115;-83
2022/06/15 04:19:02;;;;;;;;;;;;;;;9.83;96.02;98618.64;1779969;80;20758;-83
2022/06/15 04:21:25;;;;;;;;;;;;;;;9.97;96.11;98627.65;1778608;80;20224;-83
2022/06/15 04:23:51;;;;;;;;;;;;;;;10.09;95.57;98624.22;1779742;79;20139;-83
2022/06/15 04:26:17;;;;;;;;;;;;;;;10.17;95.67;98620.48;1779334;79;21667;-82
2022/06/15 04:28:44;;;;;;;;;;;;;;;10.22;95.81;98616.16;1779951;80;21040;-83
2022/06/15 04:31:09;;;;;;;;;;;;;;;10.24;95.84;98615.38;1740537;80;20308;-82
2022/06/15 04:33:35;;;;;;;;;;;;;;;10.35;93.86;98615.73;1737728;80;20299;-85
2022/06/15 04:36:01;;;;;;;;;;;;;;;10.34;93.01;98617.62;1774224;79;20206;-83
2022/06/15 04:38:27;;;;;;;;;;;;;;;10.29;94.43;98612.71;1779784;79;20266;-83
2022/06/15 04:40:52;;;;;;;;;;;;;;;10.35;94.74;98611.13;1779975;80;21366;-83
2022/06/15 04:43:18;;;;;;;;;;;;;;;10.50;95.77;98613.61;1779311;80;20186;-83
2022/06/15 04:45:44;;;;;;;;;;;;;;;10.63;94.81;98606.36;1780179;80;20217;-85
2022/06/15 04:48:10;;;;;;;;;;;;;;;10.77;93.55;98610.72;1776939;79;20619;-86
2022/06/15 04:50:36;;;;;;;;;;;;;;;10.90;93.14;98609.69;1779480;80;20198;-85
2022/06/15 04:53:02;;;;;;;;;;;;;;;11.01;92.46;98607.27;1781881;79;21013;-85
2022/06/15 04:55:28;;;;;;;;;;;;;;;11.10;92.13;98607.55;1745364;80;20300;-85
2022/06/15 04:57:58;;;;;;;;;;;;;;;11.20;91.07;98609.49;1775367;79;20164;-85
2022/06/15 05:00:25;;;;;;;;;;;;;;;11.24;91.53;98607.31;1782504;79;20155;-86
2022/06/15 05:02:51;;;;;;;;;;;;;;;11.38;90.45;98606.25;1771405;79;20219;-83
2022/06/15 05:05:17;;;;;;;;;;;;;;;11.39;89.97;98609.23;1769073;79;21126;-83
2022/06/15 05:07:44;;;;;;;;;;;;;;;11.40;89.44;98605.43;1740733;82;21181;-83
2022/06/15 05:10:16;;;;;;;;;;;;;;;11.46;88.79;98605.72;1768289;80;20211;-83
2022/06/15 05:12:42;;;;;;;;;;;;;;;11.47;88.80;98601.09;1779386;79;20164;-83
2022/06/15 05:15:09;;;;;;;;;;;;;;;11.54;88.81;98600.29;1763259;80;20197;-82
2022/06/15 05:17:35;;;;;;;;;;;;;;;11.69;88.30;98598.09;1779920;79;21184;-83
2022/06/15 05:20:01;;;;;;;;;;;;;;;11.70;87.77;98597.81;1779489;79;20258;-83
2022/06/15 05:22:27;;;;;;;;;;;;;;;11.74;88.16;98590.77;1779685;80;20175;-85
2022/06/15 05:24:53;;;;;;;;;;;;;;;11.89;87.50;98593.23;1772186;79;20258;-86
2022/06/15 05:27:19;;;;;;;;;;;;;;;12.01;87.18;98594.55;1768698;79;20193;-86
2022/06/15 05:29:44;;;;;;;;;;;;;;;12.17;86.52;98589.09;1757443;80;21094;-85
2022/06/15 05:32:10;;;;;;;;;;;;;;;12.40;85.84;98589.84;1773179;78;20207;-85
2022/06/15 05:34:36;;;;;;;;;;;;;;;12.58;85.30;98594.66;1778242;79;20195;-85
2022/06/15 05:37:02;;;;;;;;;;;;;;;12.65;85.33;98588.38;1777809;79;20616;-83
2022/06/15 05:39:28;;;;;;;;;;;;;;;12.82;84.48;98595.33;1773949;78;20140;-83
2022/06/15 05:41:54;;;;;;;;;;;;;;;12.82;84.37;98597.53;1773053;79;21851;-83
2022/06/15 05:44:37;;;;;;;;;;;;;;;13.05;84.40;98595.20;1779465;80;20757;-86
2022/06/15 05:47:00;;;;;;;;;;;;;;;13.38;83.79;98599.91;1772422;79;20758;-86
2022/06/15 05:49:26;;;;;;;;;;;;;;;13.59;83.37;98595.66;1775599;79;20482;-86
2022/06/15 05:51:51;;;;;;;;;;;;;;;13.89;81.72;98597.31;1773335;79;20269;-86
2022/06/15 05:54:17;;;;;;;;;;;;;;;14.10;81.50;98594.11;1776849;80;21127;-86
2022/06/15 05:56:43;;;;;;;;;;;;;;;14.35;80.57;98592.98;1778273;79;20164;-86
2022/06/15 05:59:09;;;;;;;;;;;;;;;14.53;80.00;98599.66;1764934;79;20237;-86
2022/06/15 06:01:36;;;;;;;;;;;;;;;14.64;78.94;98597.61;1764823;79;20322;-86
2022/06/15 06:04:02;;;;;;;;;;;;;;;14.60;77.85;98600.09;1763548;79;20334;-86
2022/06/15 06:06:28;;;;;;;;;;;;;;;14.60;78.07;98604.73;1774074;79;21100;-86
2022/06/15 06:08:54;;;;;;;;;;;;;;;14.62;78.14;98600.63;1773780;79;20240;-83
2022/06/15 06:11:20;;;;;;;;;;;;;;;14.84;77.78;98604.70;1760142;80;20234;-83
2022/06/15 06:13:46;;;;;;;;;;;;;;;14.94;76.05;98601.28;1759220;80;20514;-83
2022/06/15 06:16:12;;;;;;;;;;;;;;;14.99;76.14;98604.50;1769706;79;20203;-84
2022/06/15 06:18:38;;;;;;;;;;;;;;;15.08;75.84;98605.47;1762716;79;21139;-83
2022/06/15 06:21:05;;;;;;;;;;;;;;;15.02;75.36;98607.19;1766806;79;20221;-83
2022/06/15 06:23:34;;;;;;;;;;;;;;;15.19;75.09;98608.30;1775594;79;20258;-83
2022/06/15 06:25:59;;;;;;;;;;;;;;;15.15;74.71;98611.38;1753145;79;20728;-83
2022/06/15 06:28:41;;;;;;;;;;;;;;;15.29;74.94;98611.98;1778531;79;20208;-83
2022/06/15 06:31:04;;;;;;;;;;;;;;;15.30;73.59;98605.44;1764935;79;21010;-83
2022/06/15 06:33:33;;;;;;;;;;;;;;;15.45;74.75;98600.53;1770066;79;20566;-83
2022/06/15 06:36:00;;;;;;;;;;;;;;;15.59;73.94;98610.16;1744252;78;20420;-83
2022/06/15 06:38:26;;;;;;;;;;;;;;;15.80;73.56;98604.63;1770104;79;20625;-83
2022/06/15 06:40:52;;;;;;;;;;;;;;;15.86;69.50;98611.38;1771959;79;20170;-83
2022/06/15 06:43:18;;;;;;;;;;;;;;;16.08;68.46;98612.91;1742956;80;21044;-83
2022/06/15 06:45:44;;;;;;;;;;;;;;;16.34;69.94;98609.95;1769590;79;20189;-83
2022/06/15 06:48:10;;;;;;;;;;;;;;;16.70;70.33;98608.45;1766284;79;20297;-83
2022/06/15 06:50:37;;;;;;;;;;;;;;;16.80;70.14;98599.47;1768704;79;20574;-83
2022/06/15 06:53:03;;;;;;;;;;;;;;;17.11;69.52;98598.81;1774853;79;20192;-83
2022/06/15 06:55:29;;;;;;;;;;;;;;;17.39;67.79;98598.97;1770809;79;21061;-83
2022/06/15 06:57:55;;;;;;;;;;;;;;;17.69;64.40;98603.47;1772748;79;20246;-84
2022/06/15 07:00:21;;;;;;;;;;;;;;;17.69;64.92;98604.84;1768708;79;20208;-83
2022/06/15 07:02:47;;;;;;;;;;;;;;;17.76;61.99;98603.29;1774247;79;20171;-83
2022/06/15 07:05:13;;;;;;;;;;;;;;;17.88;62.34;98604.67;1772693;79;20174;-84
2022/06/15 07:07:39;;;;;;;;;;;;;;;17.91;64.44;98603.47;1765960;80;20641;-83
2022/06/15 07:10:06;;;;;;;;;;;;;;;18.19;63.49;98595.88;1773021;80;20328;-83
2022/06/15 07:12:33;;;;;;;;;;;;;;;18.19;57.79;98604.66;1772083;79;20526;-83
2022/06/15 07:14:58;;;;;;;;;;;;;;;18.40;59.92;98599.45;1780579;79;20471;-83
2022/06/15 07:17:24;;;;;;;;;;;;;;;18.68;63.77;98594.56;1776021;78;20206;-83
2022/06/15 07:19:50;;;;;;;;;;;;;;;18.90;60.49;98595.03;1770959;80;21104;-83
2022/06/15 07:22:16;;;;;;;;;;;;;;;19.16;56.46;98599.98;1778326;80;20174;-83
2022/06/15 07:24:42;;;;;;;;;;;;;;;19.31;58.53;98595.40;1772996;79;20297;-83
2022/06/15 07:27:08;;;;;;;;;;;;;;;19.57;60.82;98595.42;1770180;78;20470;-83
2022/06/15 07:29:33;;;;;;;;;;;;;;;19.72;55.68;98593.52;1778755;79;20222;-83
2022/06/15 07:31:59;;;;;;;;;;;;;;;19.62;50.26;98588.36;1775154;79;21121;-83
2022/06/15 07:34:25;;;;;;;;;;;;;;;19.66;51.27;98586.59;1764255;80;20568;-84
2022/06/15 07:36:51;;;;;;;;;;;;;;;19.71;50.50;98588.36;1774525;79;20285;-83
2022/06/15 07:39:21;;;;;;;;;;;;;;;19.99;52.69;98577.20;1771479;80;20253;-83
2022/06/15 07:41:47;;;;;;;;;;;;;;;20.24;54.56;98582.38;1769014;79;20518;-84
2022/06/15 07:44:13;;;;;;;;;;;;;;;20.33;52.04;98582.34;1775877;80;20892;-83
2022/06/15 07:46:39;;;;;;;;;;;;;;;20.64;48.47;98588.16;1772776;79;20652;-83
2022/06/15 07:51:54;;;;;;;;;;;;;;;20.76;48.05;98576.66;1766164;79;20438;-83
2022/06/15 07:54:20;;;;;;;;;;;;;;;20.86;49.94;98569.98;1774836;79;20169;-84
2022/06/15 07:56:45;;;;;;;;;;;;;;;21.02;48.20;98574.30;1761255;80;20984;-83
2022/06/15 07:59:12;;;;;;;;;;;;;;;21.22;46.16;98576.28;1769230;80;21069;-84
2022/06/15 08:01:37;;;;;;;;;;;;;;;21.89;44.53;98579.92;1779146;79;20161;-84
2022/06/15 08:04:04;;;;;;;;;;;;;;;22.50;44.44;98578.67;1776442;80;20273;-84
2022/06/15 08:06:30;;;;;;;;;;;;;;;22.68;41.46;98573.14;1775329;79;20174;-84
2022/06/15 08:08:56;;;;;;;;;;;;;;;22.27;40.89;98574.73;1763117;80;20983;-86
2022/06/15 08:11:22;;;;;;;;;;;;;;;22.27;42.67;98576.92;1769014;79;20289;-88
2022/06/15 08:13:48;;;;;;;;;;;;;;;22.22;39.04;98574.40;1759388;80;20160;-86
2022/06/15 08:16:14;;;;;;;;;;;;;;;22.44;39.34;98567.04;1779692;79;20663;-87
2022/06/15 08:18:43;;;;;;;;;;;;;;;23.11;40.55;98564.83;1773131;78;20155;-87
2022/06/15 08:21:19;;;;;;;;;;;;;;;23.60;38.82;98567.47;1767176;79;21263;-87
2022/06/15 08:23:45;;;;;;;;;;;;;;;23.38;37.35;98565.20;1774143;79;20234;-87
2022/06/15 08:26:13;;;;;;;;;;;;;;;23.31;35.83;98568.56;1751655;79;20495;-85
2022/06/15 08:28:40;;;;;;;;;;;;;;;23.29;35.64;98564.77;1771234;80;20204;-84
2022/06/15 08:31:06;;;;;;;;;;;;;;;23.66;34.92;98563.84;1778547;79;20227;-84
2022/06/15 08:33:32;;;;;;;;;;;;;;;24.29;36.25;98567.53;1776163;80;21156;-84
2022/06/15 08:35:58;;;;;;;;;;;;;;;24.10;32.61;98561.90;1768048;79;20819;-84
2022/06/15 08:38:25;;;;;;;;;;;;;;;24.43;33.14;98555.44;1772515;79;20181;-84
2022/06/15 08:40:54;;;;;;;;;;;;;;;24.92;30.09;98566.68;1769776;80;20447;-84
2022/06/15 08:43:57;;;;;;;;;;;;;;;25.48;31.55;98560.80;1769547;79;20467;-84
2022/06/15 08:46:48;;;;;;;;;;;;;;;25.40;32.66;98565.98;1723462;81;21808;-84
2022/06/15 08:49:24;;;;;;;;;;;;;;;25.23;34.50;98556.12;1738149;81;20169;-84
2022/06/15 08:51:58;;;;;;;;;;;;;;;26.17;31.47;98558.97;1777736;79;20219;-84
2022/06/15 08:54:39;;;;;;;;;;;;;;;26.54;32.24;98555.64;1752763;80;20180;-84
2022/06/15 08:57:11;;;;;;;;;;;;;;;27.34;33.68;98555.83;1772829;80;20189;-85
2022/06/15 09:00:06;;;;;;;;;;;;;;;26.98;29.75;98556.70;1771418;80;20896;-84
2022/06/15 09:02:45;;;;;;;;;;;;;;;28.11;30.46;98555.72;1758541;79;20573;-85
2022/06/15 09:05:26;;;;;;;;;;;;;;;26.79;29.25;98557.42;1768844;80;20301;-85
2022/06/15 09:08:27;;;;;;;;;;;;;;;27.76;31.30;98555.56;1772315;79;20551;-84
2022/06/15 09:11:08;;;;;;;;;;;;;;;28.79;31.97;98556.31;1775155;80;20183;-85
2022/06/15 09:13:50;;;;;;;;;;;;;;;28.18;28.68;98555.00;1774981;79;20897;-84
2022/06/15 09:16:42;;;;;;;;;;;;;;;29.06;30.21;98552.16;1754523;78;20565;-85
2022/06/15 09:19:13;;;;;;;;;;;;;;;29.63;30.31;98552.43;1748479;81;20134;-85
2022/06/15 09:21:51;;;;;;;;;;;;;;;28.64;28.35;98552.65;1737919;79;20202;-85
2022/06/15 09:24:23;;;;;;;;;;;;;;;28.21;29.27;98549.47;1733468;81;20151;-85
2022/06/15 09:26:54;;;;;;;;;;;;;;;29.16;29.83;98543.64;1773254;79;21029;-85
2022/06/15 09:29:29;;;;;;;;;;;;;;;28.58;27.77;98549.41;1778502;80;20222;-85
2022/06/15 09:32:04;;;;;;;;;;;;;;;28.39;28.22;98555.23;1772514;79;20269;-85
2022/06/15 09:34:36;;;;;;;;;;;;;;;28.58;27.90;98557.77;1771475;79;20262;-85
2022/06/15 09:37:02;;;;;;;;;;;;;;;29.88;27.93;98547.52;1776869;79;21136;-85
2022/06/15 09:39:28;;;;;;;;;;;;;;;29.94;26.29;98540.36;1765963;79;21116;-85
2022/06/15 09:42:12;;;;;;;;;;;;;;;29.21;25.67;98544.05;1759545;80;20218;-85
2022/06/15 09:44:54;;;;;;;;;;;;;;;29.71;26.64;98535.11;1764767;79;20516;-85
2022/06/15 09:47:43;;;;;;;;;;;;;;;30.69;27.03;98544.05;1771544;79;20196;-85
2022/06/15 09:50:13;;;;;;;;;;;;;;;30.40;25.92;98531.23;1770978;79;20298;-85
2022/06/15 09:53:05;;;;;;;;;;;;;;;31.17;25.52;98533.13;1775360;79;21035;-85
2022/06/15 09:55:41;;;;;;;;;;;;;;;32.48;25.86;98532.88;1749239;80;20265;-85
2022/06/15 09:58:08;;;;;;;;;;;;;;;30.18;24.38;98543.02;1772795;79;20330;-85
2022/06/15 10:00:36;;;;;;;;;;;;;;;29.51;24.79;98543.63;1768867;80;20255;-85
2022/06/15 10:03:03;;;;;;;;;;;;;;;31.56;25.37;98536.42;1771915;80;20309;-85
2022/06/15 10:05:34;;;;;;;;;;;;;;;30.97;23.95;98538.20;1776781;79;21097;-85
2022/06/15 10:08:03;;;;;;;;;;;;;;;31.04;24.15;98538.98;1775484;79;20247;-85
2022/06/15 10:10:32;;;;;;;;;;;;;;;30.66;23.99;98532.25;1771677;79;20661;-85
2022/06/15 10:13:07;;;;;;;;;;;;;;;31.08;25.02;98536.16;1776421;79;20158;-85
2022/06/15 10:15:42;;;;;;;;;;;;;;;31.68;22.73;98528.95;1757675;79;20256;-88
2022/06/15 10:18:20;;;;;;;;;;;;;;;31.19;24.29;98527.12;1764425;79;21731;-88
2022/06/15 10:21:15;;;;;;;;;;;;;;;31.37;23.56;98531.31;1770398;79;20533;-87
2022/06/15 10:24:00;;;;;;;;;;;;;;;31.21;23.36;98528.97;1771458;79;20142;-88
2022/06/15 10:26:32;;;;;;;;;;;;;;;33.05;22.43;98521.89;1745376;78;20296;-87
2022/06/15 10:29:00;;;;;;;;;;;;;;;32.60;23.34;98516.13;1768244;80;20170;-87
2022/06/15 10:31:30;;;;;;;;;;;;;;;34.06;22.00;98507.37;1777777;80;20984;-88
2022/06/15 10:33:57;;;;;;;;;;;;;;;32.91;21.24;98508.64;1760353;79;20212;-88
2022/06/15 10:36:29;;;;;;;;;;;;;;;32.03;22.13;98503.34;1760968;80;20306;-85
2022/06/15 10:39:05;;;;;;;;;;;;;;;33.37;23.28;98505.31;1756119;79;21185;-85
2022/06/15 10:41:46;;;;;;;;;;;;;;;34.06;22.10;98507.37;1769893;80;20196;-86
2022/06/15 10:44:25;;;;;;;;;;;;;;;34.37;22.28;98503.27;1777413;79;21304;-85
2022/06/15 10:46:55;;;;;;;;;;;;;;;33.30;21.96;98510.38;1771854;79;20195;-89
2022/06/15 10:49:21;;;;;;;;;;;;;;;32.78;22.66;98499.31;1768256;79;20184;-88
2022/06/15 10:51:47;;;;;;;;;;;;;;;32.93;22.77;98499.99;1771289;78;20212;-86
2022/06/15 10:54:33;;;;;;;;;;;;;;;31.88;22.13;98498.46;1778724;79;20202;-88
2022/06/15 11:02:43;;;;;;;;;;;;;;;29.62;24.87;98501.18;1770153;78;20199;-87
2022/06/15 11:05:14;;;;;;;;;;;;;;;29.30;25.65;98499.64;1772280;79;20998;-88
2022/06/15 11:07:55;;;;;;;;;;;;;;;30.79;24.22;98490.09;1767475;79;20127;-87
2022/06/15 11:10:26;;;;;;;;;;;;;;;31.75;24.80;98490.30;1732125;80;21264;-88
2022/06/15 11:12:55;;;;;;;;;;;;;;;31.49;23.20;98490.25;1770878;79;20239;-88
2022/06/15 11:18:01;;;;;;;;;;;;;;;29.93;24.52;98490.67;1779918;79;20156;-87
2022/06/15 11:18:09;;;;;;;;;;;;;;;32.14;24.76;98494.88;1776686;79;20405;-88
2022/06/15 11:20:52;;;;;;;;;;;;;;;32.09;22.35;98488.30;1781075;78;20148;-87
2022/06/15 11:23:28;;;;;;;;;;;;;;;32.40;22.61;98485.08;1785720;79;21020;-88
2022/06/15 11:26:51;;;;;;;;;;;;;;;32.99;22.14;98477.28;1778814;79;20234;-87
2022/06/15 11:28:33;;;;;;;;;;;;;;;33.24;22.06;98481.16;1780326;78;20607;-87
2022/06/15 11:31:05;;;;;;;;;;;;;;;33.59;22.13;98481.35;1774859;78;20810;-88
2022/06/15 11:33:49;;;;;;;;;;;;;;;33.42;22.01;98488.01;1753596;79;20148;-88
2022/06/15 11:36:25;;;;;;;;;;;;;;;30.94;23.64;98478.27;1784164;78;21097;-88
2022/06/15 11:38:55;;;;;;;;;;;;;;;30.36;24.35;98475.95;1779632;78;20183;-86
2022/06/15 11:41:41;;;;;;;;;;;;;;;31.87;23.00;98484.23;1781807;78;20228;-88
2022/06/15 11:44:09;;;;;;;;;;;;;;;33.16;22.84;98477.45;1793584;78;20203;-86
2022/06/15 11:47:02;;;;;;;;;;;;;;;33.68;21.62;98475.82;1784769;78;20484;-85
2022/06/15 11:49:51;;;;;;;;;;;;;;;33.47;21.66;98474.09;1785498;78;20922;-88
2022/06/15 11:52:24;;;;;;;;;;;;;;;34.32;22.47;98477.64;1783983;80;20148;-86
2022/06/15 11:55:15;;;;;;;;;;;;;;;33.72;21.14;98471.73;1786161;80;20175;-88
2022/06/15 11:57:47;;;;;;;;;;;;;;;34.74;21.75;98476.11;1780336;80;20207;-88
2022/06/15 12:00:28;;;;;;;;;;;;;;;33.62;20.92;98472.06;1734043;81;20173;-89
2022/06/15 12:03:04;;;;;;;;;;;;;;;34.05;20.60;98476.28;1763758;80;21170;-86
2022/06/15 12:05:41;;;;;;;;;;;;;;;35.04;20.33;98473.14;1768438;80;20458;-88
2022/06/15 12:08:12;;;;;;;;;;;;;;;34.71;20.92;98464.31;1775687;78;20180;-88
2022/06/15 12:10:50;;;;;;;;;;;;;;;33.79;20.50;98468.81;1784449;80;20246;-86
2022/06/15 12:13:38;;;;;;;;;;;;;;;33.72;20.95;98467.52;1789576;80;20183;-86
2022/06/15 12:16:10;;;;;;;;;;;;;;;33.03;20.72;98464.59;1780673;78;21031;-87
2022/06/15 12:18:43;;;;;;;;;;;;;;;32.97;22.36;98454.43;1764133;79;20160;-87
2022/06/15 12:21:12;;;;;;;;;;;;;;;32.91;22.23;98457.53;1789229;80;20163;-88
2022/06/15 12:23:48;;;;;;;;;;;;;;;32.50;21.64;98457.53;1788443;78;20336;-86
2022/06/15 12:26:43;;;;;;;;;;;;;;;33.42;21.99;98449.30;1763995;79;20227;-86
2022/06/15 12:29:24;;;;;;;;;;;;;;;33.82;22.00;98444.68;1785966;80;21172;-87
2022/06/15 12:31:56;;;;;;;;;;;;;;;34.80;20.95;98448.27;1731650;80;20654;-88
2022/06/15 12:34:26;;;;;;;;;;;;;;;34.94;21.74;98450.20;1751781;79;20187;-88
2022/06/15 12:36:59;;;;;;;;;;;;;;;34.93;20.43;98452.84;1767665;80;20148;-88
2022/06/15 12:39:31;;;;;;;;;;;;;;;35.43;21.26;98450.41;1766419;80;20217;-86
2022/06/15 12:42:10;;;;;;;;;;;;;;;33.70;21.45;98448.88;1774400;79;21120;-86
2022/06/15 12:44:40;;;;;;;;;;;;;;;33.49;22.62;98444.97;1765222;80;20517;-86
2022/06/15 12:47:13;;;;;;;;;;;;;;;33.39;22.38;98441.89;1758848;80;20154;-87
2022/06/15 12:49:58;;;;;;;;;;;;;;;34.44;23.19;98447.51;1770025;80;20184;-86
2022/06/15 12:52:34;;;;;;;;;;;;;;;33.70;21.03;98449.50;1782682;78;20542;-86
2022/06/15 12:55:03;;;;;;;;;;;;;;;33.25;21.43;98450.49;1775216;79;21028;-86
2022/06/15 12:57:54;;;;;;;;;;;;;;;33.44;21.90;98442.65;1779129;80;20159;-88
2022/06/15 13:00:31;;;;;;;;;;;;;;;33.11;21.60;98445.84;1782603;79;20175;-86
2022/06/15 13:03:03;;;;;;;;;;;;;;;32.52;22.63;98441.08;1763775;80;20168;-87
2022/06/15 13:05:35;;;;;;;;;;;;;;;33.51;22.50;98441.15;1773207;80;20160;-86
2022/06/15 13:08:25;;;;;;;;;;;;;;;34.48;22.02;98441.22;1754739;80;21128;-89
2022/06/15 13:10:57;;;;;;;;;;;;;;;34.58;21.54;98433.19;1777520;78;20455;-87
2022/06/15 13:13:35;;;;;;;;;;;;;;;34.68;20.99;98437.02;1781890;79;20164;-89
2022/06/15 13:16:08;;;;;;;;;;;;;;;33.33;22.15;98446.37;1776503;80;20172;-87
2022/06/15 13:18:46;;;;;;;;;;;;;;;33.75;21.72;98442.77;1773142;79;20136;-87
2022/06/15 13:21:18;;;;;;;;;;;;;;;33.56;21.19;98440.05;1783117;79;21792;-87